sensor_id;sensor_type;location;lat;lon;timestamp;P1;durP1;ratioP1;P2;durP2;ratioP2
7647;SDS011;3866;48.020;11.720;2022-10-31T00:01:25;6.77;;;3.43;;
7647;SDS011;3866;48.020;11.720;2022-10-31T00:03:55;5.37;;;3.17;;
7647;SDS011;3866;48.020;11.720;2022-10-31T00:06:24;6.63;;;3.63;;
7647;SDS011;3866;48.020;11.720;2022-10-31T00:08:52;7.90;;;3.97;;
7647;SDS011;3866;48.020;11.720;2022-10-31T00:11:22;10.03;;;4.00;;
7647;SDS011;3866;48.020;11.720;2022-10-31T00:13:50;10.83;;;4.07;;
7647;SDS011;3866;48.020;11.720;2022-10-31T00:16:19;7.07;;;3.57;;
7647;SDS011;3866;48.020;11.720;2022-10-31T00:18:49;6.73;;;3.67;;
7647;SDS011;3866;48.020;11.720;2022-10-31T00:21:18;7.40;;;3.30;;
7647;SDS011;3866;48.020;11.720;2022-10-31T00:23:47;8.10;;;3.60;;
7647;SDS011;3866;48.020;11.720;2022-10-31T00:26:15;4.77;;;3.13;;
7647;SDS011;3866;48.020;11.720;2022-10-31T00:28:42;5.40;;;3.07;;
7647;SDS011;3866;48.020;11.720;2022-10-31T00:31:11;7.17;;;3.97;;
7647;SDS011;3866;48.020;11.720;2022-10-31T00:33:40;14.60;;;4.47;;
7647;SDS011;3866;48.020;11.720;2022-10-31T00:36:12;6.97;;;3.77;;
7647;SDS011;3866;48.020;11.720;2022-10-31T00:38:41;5.40;;;3.73;;
7647;SDS011;3866;48.020;11.720;2022-10-31T00:41:09;8.43;;;3.93;;
7647;SDS011;3866;48.020;11.720;2022-10-31T00:43:36;8.40;;;4.00;;
7647;SDS011;3866;48.020;11.720;2022-10-31T00:46:06;6.63;;;3.73;;
7647;SDS011;3866;48.020;11.720;2022-10-31T00:48:33;9.57;;;3.90;;
7647;SDS011;3866;48.020;11.720;2022-10-31T00:51:00;12.00;;;4.40;;
7647;SDS011;3866;48.020;11.720;2022-10-31T00:53:30;9.03;;;3.47;;
7647;SDS011;3866;48.020;11.720;2022-10-31T00:55:58;5.80;;;3.10;;
7647;SDS011;3866;48.020;11.720;2022-10-31T00:58:26;8.80;;;3.70;;
7647;SDS011;3866;48.020;11.720;2022-10-31T01:00:54;9.40;;;3.90;;
7647;SDS011;3866;48.020;11.720;2022-10-31T01:03:22;7.00;;;3.33;;
7647;SDS011;3866;48.020;11.720;2022-10-31T01:05:59;7.30;;;3.83;;
7647;SDS011;3866;48.020;11.720;2022-10-31T01:08:33;9.10;;;3.60;;
7647;SDS011;3866;48.020;11.720;2022-10-31T01:11:02;8.07;;;3.93;;
7647;SDS011;3866;48.020;11.720;2022-10-31T01:13:33;5.57;;;3.50;;
7647;SDS011;3866;48.020;11.720;2022-10-31T01:16:02;9.70;;;4.40;;
7647;SDS011;3866;48.020;11.720;2022-10-31T01:18:32;5.93;;;3.70;;
7647;SDS011;3866;48.020;11.720;2022-10-31T01:21:01;7.03;;;3.60;;
7647;SDS011;3866;48.020;11.720;2022-10-31T01:23:33;11.40;;;4.30;;
7647;SDS011;3866;48.020;11.720;2022-10-31T01:26:06;6.33;;;4.23;;
7647;SDS011;3866;48.020;11.720;2022-10-31T01:28:37;10.13;;;3.50;;
7647;SDS011;3866;48.020;11.720;2022-10-31T01:31:06;9.87;;;4.07;;
7647;SDS011;3866;48.020;11.720;2022-10-31T01:33:36;5.83;;;3.50;;
7647;SDS011;3866;48.020;11.720;2022-10-31T01:36:14;7.13;;;3.77;;
7647;SDS011;3866;48.020;11.720;2022-10-31T01:38:46;6.47;;;4.20;;
7647;SDS011;3866;48.020;11.720;2022-10-31T01:41:14;6.90;;;3.87;;
7647;SDS011;3866;48.020;11.720;2022-10-31T01:43:48;7.60;;;4.13;;
7647;SDS011;3866;48.020;11.720;2022-10-31T01:46:20;11.57;;;4.60;;
7647;SDS011;3866;48.020;11.720;2022-10-31T01:48:52;7.27;;;3.33;;
7647;SDS011;3866;48.020;11.720;2022-10-31T01:51:22;5.60;;;3.83;;
7647;SDS011;3866;48.020;11.720;2022-10-31T01:53:54;6.90;;;3.63;;
7647;SDS011;3866;48.020;11.720;2022-10-31T01:56:26;6.93;;;3.83;;
7647;SDS011;3866;48.020;11.720;2022-10-31T01:58:55;6.93;;;3.30;;
7647;SDS011;3866;48.020;11.720;2022-10-31T02:01:23;8.20;;;3.67;;
7647;SDS011;3866;48.020;11.720;2022-10-31T02:03:52;7.23;;;3.10;;
7647;SDS011;3866;48.020;11.720;2022-10-31T02:06:22;5.13;;;3.10;;
7647;SDS011;3866;48.020;11.720;2022-10-31T02:09:01;4.53;;;2.90;;
7647;SDS011;3866;48.020;11.720;2022-10-31T02:11:31;9.03;;;3.33;;
7647;SDS011;3866;48.020;11.720;2022-10-31T02:14:02;9.33;;;3.47;;
7647;SDS011;3866;48.020;11.720;2022-10-31T02:16:30;7.67;;;3.13;;
7647;SDS011;3866;48.020;11.720;2022-10-31T02:18:58;7.30;;;3.60;;
7647;SDS011;3866;48.020;11.720;2022-10-31T02:21:27;8.83;;;3.43;;
7647;SDS011;3866;48.020;11.720;2022-10-31T02:24:24;6.00;;;3.23;;
7647;SDS011;3866;48.020;11.720;2022-10-31T02:27:21;9.53;;;3.27;;
7647;SDS011;3866;48.020;11.720;2022-10-31T02:30:10;8.57;;;3.50;;
7647;SDS011;3866;48.020;11.720;2022-10-31T02:35:43;7.67;;;3.63;;
7647;SDS011;3866;48.020;11.720;2022-10-31T02:38:21;8.70;;;3.10;;
7647;SDS011;3866;48.020;11.720;2022-10-31T02:41:00;4.90;;;3.00;;
7647;SDS011;3866;48.020;11.720;2022-10-31T02:43:31;7.00;;;3.00;;
7647;SDS011;3866;48.020;11.720;2022-10-31T02:46:08;7.17;;;3.30;;
7647;SDS011;3866;48.020;11.720;2022-10-31T02:48:42;6.07;;;3.23;;
7647;SDS011;3866;48.020;11.720;2022-10-31T02:51:12;8.87;;;3.30;;
7647;SDS011;3866;48.020;11.720;2022-10-31T02:53:42;5.30;;;3.30;;
7647;SDS011;3866;48.020;11.720;2022-10-31T02:56:11;5.60;;;3.43;;
7647;SDS011;3866;48.020;11.720;2022-10-31T02:58:40;5.87;;;3.30;;
7647;SDS011;3866;48.020;11.720;2022-10-31T03:04:19;5.13;;;2.87;;
7647;SDS011;3866;48.020;11.720;2022-10-31T03:07:01;4.17;;;3.27;;
7647;SDS011;3866;48.020;11.720;2022-10-31T03:09:36;8.10;;;3.00;;
7647;SDS011;3866;48.020;11.720;2022-10-31T03:12:10;8.10;;;3.00;;
7647;SDS011;3866;48.020;11.720;2022-10-31T03:14:43;5.00;;;2.80;;
7647;SDS011;3866;48.020;11.720;2022-10-31T03:17:20;7.23;;;3.13;;
7647;SDS011;3866;48.020;11.720;2022-10-31T03:19:53;9.87;;;3.53;;
7647;SDS011;3866;48.020;11.720;2022-10-31T03:22:23;4.20;;;3.10;;
7647;SDS011;3866;48.020;11.720;2022-10-31T03:24:54;5.37;;;3.40;;
7647;SDS011;3866;48.020;11.720;2022-10-31T03:27:24;4.90;;;3.07;;
7647;SDS011;3866;48.020;11.720;2022-10-31T03:29:54;8.23;;;2.83;;
7647;SDS011;3866;48.020;11.720;2022-10-31T03:32:26;5.37;;;2.83;;
7647;SDS011;3866;48.020;11.720;2022-10-31T03:34:59;5.63;;;2.90;;
7647;SDS011;3866;48.020;11.720;2022-10-31T03:37:29;5.50;;;2.80;;
7647;SDS011;3866;48.020;11.720;2022-10-31T03:40:03;4.13;;;2.67;;
7647;SDS011;3866;48.020;11.720;2022-10-31T03:42:34;8.77;;;3.00;;
7647;SDS011;3866;48.020;11.720;2022-10-31T03:45:07;4.73;;;2.43;;
7647;SDS011;3866;48.020;11.720;2022-10-31T03:47:40;6.93;;;2.57;;
7647;SDS011;3866;48.020;11.720;2022-10-31T03:50:13;5.80;;;2.10;;
7647;SDS011;3866;48.020;11.720;2022-10-31T03:52:43;5.33;;;2.47;;
7647;SDS011;3866;48.020;11.720;2022-10-31T03:55:16;3.57;;;2.40;;
7647;SDS011;3866;48.020;11.720;2022-10-31T03:57:48;9.70;;;3.20;;
7647;SDS011;3866;48.020;11.720;2022-10-31T04:00:23;4.00;;;2.53;;
7647;SDS011;3866;48.020;11.720;2022-10-31T04:02:53;4.83;;;3.00;;
7647;SDS011;3866;48.020;11.720;2022-10-31T04:05:27;7.00;;;3.17;;
7647;SDS011;3866;48.020;11.720;2022-10-31T04:07:59;8.20;;;2.87;;
7647;SDS011;3866;48.020;11.720;2022-10-31T04:10:30;7.10;;;2.93;;
7647;SDS011;3866;48.020;11.720;2022-10-31T04:13:01;5.50;;;2.87;;
7647;SDS011;3866;48.020;11.720;2022-10-31T04:15:32;5.63;;;3.40;;
7647;SDS011;3866;48.020;11.720;2022-10-31T04:18:02;5.43;;;2.87;;
7647;SDS011;3866;48.020;11.720;2022-10-31T04:20:34;8.87;;;3.40;;
7647;SDS011;3866;48.020;11.720;2022-10-31T04:23:04;6.63;;;3.00;;
7647;SDS011;3866;48.020;11.720;2022-10-31T04:25:39;6.47;;;3.23;;
7647;SDS011;3866;48.020;11.720;2022-10-31T04:28:07;8.00;;;3.63;;
7647;SDS011;3866;48.020;11.720;2022-10-31T04:30:34;9.80;;;3.00;;
7647;SDS011;3866;48.020;11.720;2022-10-31T04:33:00;4.63;;;2.87;;
7647;SDS011;3866;48.020;11.720;2022-10-31T04:35:27;5.70;;;2.93;;
7647;SDS011;3866;48.020;11.720;2022-10-31T04:37:55;5.83;;;2.80;;
7647;SDS011;3866;48.020;11.720;2022-10-31T04:40:22;7.37;;;3.17;;
7647;SDS011;3866;48.020;11.720;2022-10-31T04:42:49;6.43;;;2.87;;
7647;SDS011;3866;48.020;11.720;2022-10-31T04:45:16;5.87;;;2.90;;
7647;SDS011;3866;48.020;11.720;2022-10-31T04:47:43;6.57;;;3.63;;
7647;SDS011;3866;48.020;11.720;2022-10-31T04:50:10;4.63;;;2.70;;
7647;SDS011;3866;48.020;11.720;2022-10-31T04:52:38;4.40;;;2.70;;
7647;SDS011;3866;48.020;11.720;2022-10-31T04:55:07;5.97;;;2.80;;
7647;SDS011;3866;48.020;11.720;2022-10-31T04:57:39;7.40;;;3.37;;
7647;SDS011;3866;48.020;11.720;2022-10-31T05:00:07;7.97;;;3.23;;
7647;SDS011;3866;48.020;11.720;2022-10-31T05:02:42;8.00;;;3.80;;
7647;SDS011;3866;48.020;11.720;2022-10-31T05:05:09;9.97;;;4.43;;
7647;SDS011;3866;48.020;11.720;2022-10-31T05:07:37;10.63;;;5.53;;
7647;SDS011;3866;48.020;11.720;2022-10-31T05:10:07;10.93;;;4.60;;
7647;SDS011;3866;48.020;11.720;2022-10-31T05:12:36;6.53;;;3.63;;
7647;SDS011;3866;48.020;11.720;2022-10-31T05:15:04;7.00;;;3.40;;
7647;SDS011;3866;48.020;11.720;2022-10-31T05:17:33;6.13;;;3.40;;
7647;SDS011;3866;48.020;11.720;2022-10-31T05:20:01;5.00;;;2.67;;
7647;SDS011;3866;48.020;11.720;2022-10-31T05:22:30;6.10;;;2.53;;
7647;SDS011;3866;48.020;11.720;2022-10-31T05:24:57;4.07;;;2.63;;
7647;SDS011;3866;48.020;11.720;2022-10-31T05:27:25;6.20;;;3.20;;
7647;SDS011;3866;48.020;11.720;2022-10-31T05:29:52;4.80;;;2.53;;
7647;SDS011;3866;48.020;11.720;2022-10-31T05:32:20;6.30;;;3.13;;
7647;SDS011;3866;48.020;11.720;2022-10-31T05:34:46;5.07;;;2.80;;
7647;SDS011;3866;48.020;11.720;2022-10-31T05:37:18;8.87;;;2.90;;
7647;SDS011;3866;48.020;11.720;2022-10-31T05:39:46;5.83;;;2.43;;
7647;SDS011;3866;48.020;11.720;2022-10-31T05:42:16;3.30;;;2.17;;
7647;SDS011;3866;48.020;11.720;2022-10-31T05:44:46;6.10;;;2.60;;
7647;SDS011;3866;48.020;11.720;2022-10-31T05:47:13;5.20;;;2.90;;
7647;SDS011;3866;48.020;11.720;2022-10-31T05:49:40;6.83;;;3.27;;
7647;SDS011;3866;48.020;11.720;2022-10-31T05:52:07;3.83;;;2.50;;
7647;SDS011;3866;48.020;11.720;2022-10-31T05:54:33;4.67;;;2.73;;
7647;SDS011;3866;48.020;11.720;2022-10-31T05:57:00;9.27;;;3.10;;
7647;SDS011;3866;48.020;11.720;2022-10-31T05:59:27;5.20;;;2.50;;
7647;SDS011;3866;48.020;11.720;2022-10-31T06:01:55;5.97;;;2.43;;
7647;SDS011;3866;48.020;11.720;2022-10-31T06:04:22;8.13;;;2.70;;
7647;SDS011;3866;48.020;11.720;2022-10-31T06:06:49;9.07;;;3.43;;
7647;SDS011;3866;48.020;11.720;2022-10-31T06:09:16;3.50;;;2.47;;
7647;SDS011;3866;48.020;11.720;2022-10-31T06:11:43;4.07;;;2.40;;
7647;SDS011;3866;48.020;11.720;2022-10-31T06:14:10;5.97;;;2.83;;
7647;SDS011;3866;48.020;11.720;2022-10-31T06:16:36;6.47;;;2.70;;
7647;SDS011;3866;48.020;11.720;2022-10-31T06:19:05;6.00;;;2.57;;
7647;SDS011;3866;48.020;11.720;2022-10-31T06:21:32;6.40;;;2.60;;
7647;SDS011;3866;48.020;11.720;2022-10-31T06:23:58;6.73;;;3.53;;
7647;SDS011;3866;48.020;11.720;2022-10-31T06:26:25;5.57;;;3.00;;
7647;SDS011;3866;48.020;11.720;2022-10-31T06:28:52;7.10;;;2.47;;
7647;SDS011;3866;48.020;11.720;2022-10-31T06:31:19;7.93;;;3.30;;
7647;SDS011;3866;48.020;11.720;2022-10-31T06:33:46;5.53;;;2.70;;
7647;SDS011;3866;48.020;11.720;2022-10-31T06:36:14;7.23;;;2.80;;
7647;SDS011;3866;48.020;11.720;2022-10-31T06:38:41;5.80;;;3.03;;
7647;SDS011;3866;48.020;11.720;2022-10-31T06:41:08;4.97;;;2.23;;
7647;SDS011;3866;48.020;11.720;2022-10-31T06:43:35;7.87;;;2.60;;
7647;SDS011;3866;48.020;11.720;2022-10-31T06:46:02;2.63;;;1.70;;
7647;SDS011;3866;48.020;11.720;2022-10-31T06:48:30;5.67;;;1.87;;
7647;SDS011;3866;48.020;11.720;2022-10-31T06:50:57;4.93;;;2.63;;
7647;SDS011;3866;48.020;11.720;2022-10-31T06:53:26;6.93;;;2.60;;
7647;SDS011;3866;48.020;11.720;2022-10-31T06:55:54;7.77;;;2.83;;
7647;SDS011;3866;48.020;11.720;2022-10-31T06:58:21;4.30;;;2.07;;
7647;SDS011;3866;48.020;11.720;2022-10-31T07:00:48;4.03;;;3.03;;
7647;SDS011;3866;48.020;11.720;2022-10-31T07:03:15;4.57;;;2.13;;
7647;SDS011;3866;48.020;11.720;2022-10-31T07:05:45;6.77;;;2.30;;
7647;SDS011;3866;48.020;11.720;2022-10-31T07:08:13;10.90;;;2.83;;
7647;SDS011;3866;48.020;11.720;2022-10-31T07:10:42;5.87;;;2.33;;
7647;SDS011;3866;48.020;11.720;2022-10-31T07:13:10;5.87;;;2.53;;
7647;SDS011;3866;48.020;11.720;2022-10-31T07:15:39;6.60;;;1.97;;
7647;SDS011;3866;48.020;11.720;2022-10-31T07:18:09;5.73;;;2.17;;
7647;SDS011;3866;48.020;11.720;2022-10-31T07:20:39;3.53;;;1.53;;
7647;SDS011;3866;48.020;11.720;2022-10-31T07:23:08;3.40;;;1.80;;
7647;SDS011;3866;48.020;11.720;2022-10-31T07:25:37;4.60;;;1.60;;
7647;SDS011;3866;48.020;11.720;2022-10-31T07:28:10;4.30;;;1.90;;
7647;SDS011;3866;48.020;11.720;2022-10-31T07:30:38;5.23;;;1.53;;
7647;SDS011;3866;48.020;11.720;2022-10-31T07:33:06;3.83;;;1.40;;
7647;SDS011;3866;48.020;11.720;2022-10-31T07:35:34;4.40;;;2.07;;
7647;SDS011;3866;48.020;11.720;2022-10-31T07:38:09;4.93;;;1.93;;
7647;SDS011;3866;48.020;11.720;2022-10-31T07:40:39;5.00;;;2.17;;
7647;SDS011;3866;48.020;11.720;2022-10-31T07:43:12;4.53;;;1.77;;
7647;SDS011;3866;48.020;11.720;2022-10-31T07:45:40;7.03;;;2.33;;
7647;SDS011;3866;48.020;11.720;2022-10-31T07:48:08;5.93;;;1.77;;
7647;SDS011;3866;48.020;11.720;2022-10-31T07:50:36;5.27;;;1.53;;
7647;SDS011;3866;48.020;11.720;2022-10-31T07:53:05;5.23;;;1.50;;
7647;SDS011;3866;48.020;11.720;2022-10-31T07:55:35;4.97;;;1.97;;
7647;SDS011;3866;48.020;11.720;2022-10-31T07:58:05;5.33;;;2.07;;
7647;SDS011;3866;48.020;11.720;2022-10-31T08:00:36;6.80;;;2.87;;
7647;SDS011;3866;48.020;11.720;2022-10-31T08:03:05;4.03;;;1.80;;
7647;SDS011;3866;48.020;11.720;2022-10-31T08:05:34;2.90;;;1.57;;
7647;SDS011;3866;48.020;11.720;2022-10-31T08:08:03;4.67;;;2.20;;
7647;SDS011;3866;48.020;11.720;2022-10-31T08:10:33;6.20;;;2.30;;
7647;SDS011;3866;48.020;11.720;2022-10-31T08:13:02;8.07;;;2.30;;
7647;SDS011;3866;48.020;11.720;2022-10-31T08:15:32;5.73;;;2.00;;
7647;SDS011;3866;48.020;11.720;2022-10-31T08:18:06;4.77;;;2.40;;
7647;SDS011;3866;48.020;11.720;2022-10-31T08:20:39;9.40;;;2.57;;
7647;SDS011;3866;48.020;11.720;2022-10-31T08:23:08;3.70;;;2.23;;
7647;SDS011;3866;48.020;11.720;2022-10-31T08:25:36;8.90;;;3.90;;
7647;SDS011;3866;48.020;11.720;2022-10-31T08:28:03;9.03;;;3.27;;
7647;SDS011;3866;48.020;11.720;2022-10-31T08:30:32;10.10;;;3.63;;
7647;SDS011;3866;48.020;11.720;2022-10-31T08:33:02;10.80;;;3.73;;
7647;SDS011;3866;48.020;11.720;2022-10-31T08:35:33;10.83;;;3.33;;
7647;SDS011;3866;48.020;11.720;2022-10-31T08:38:03;6.10;;;3.10;;
7647;SDS011;3866;48.020;11.720;2022-10-31T08:40:31;12.43;;;3.47;;
7647;SDS011;3866;48.020;11.720;2022-10-31T08:43:00;8.53;;;3.10;;
7647;SDS011;3866;48.020;11.720;2022-10-31T08:45:29;8.47;;;2.60;;
7647;SDS011;3866;48.020;11.720;2022-10-31T08:47:59;7.20;;;2.90;;
7647;SDS011;3866;48.020;11.720;2022-10-31T08:50:27;9.93;;;3.43;;
7647;SDS011;3866;48.020;11.720;2022-10-31T08:53:01;8.87;;;3.33;;
7647;SDS011;3866;48.020;11.720;2022-10-31T08:55:28;5.50;;;2.60;;
7647;SDS011;3866;48.020;11.720;2022-10-31T08:57:55;7.20;;;2.57;;
7647;SDS011;3866;48.020;11.720;2022-10-31T09:00:22;6.23;;;2.53;;
7647;SDS011;3866;48.020;11.720;2022-10-31T09:02:54;8.10;;;2.87;;
7647;SDS011;3866;48.020;11.720;2022-10-31T09:05:21;8.47;;;2.87;;
7647;SDS011;3866;48.020;11.720;2022-10-31T09:07:48;6.27;;;2.43;;
7647;SDS011;3866;48.020;11.720;2022-10-31T09:10:18;8.67;;;2.90;;
7647;SDS011;3866;48.020;11.720;2022-10-31T09:12:46;9.80;;;2.40;;
7647;SDS011;3866;48.020;11.720;2022-10-31T09:15:14;11.17;;;3.20;;
7647;SDS011;3866;48.020;11.720;2022-10-31T09:17:45;10.47;;;2.93;;
7647;SDS011;3866;48.020;11.720;2022-10-31T09:20:13;6.93;;;2.70;;
7647;SDS011;3866;48.020;11.720;2022-10-31T09:22:40;5.57;;;2.20;;
7647;SDS011;3866;48.020;11.720;2022-10-31T09:25:07;5.83;;;2.57;;
7647;SDS011;3866;48.020;11.720;2022-10-31T09:27:35;6.73;;;2.00;;
7647;SDS011;3866;48.020;11.720;2022-10-31T09:30:04;6.07;;;2.23;;
7647;SDS011;3866;48.020;11.720;2022-10-31T09:32:36;7.73;;;2.43;;
7647;SDS011;3866;48.020;11.720;2022-10-31T09:35:05;6.57;;;2.20;;
7647;SDS011;3866;48.020;11.720;2022-10-31T09:37:32;5.33;;;2.20;;
7647;SDS011;3866;48.020;11.720;2022-10-31T09:39:59;5.87;;;2.40;;
7647;SDS011;3866;48.020;11.720;2022-10-31T09:42:34;8.37;;;2.47;;
7647;SDS011;3866;48.020;11.720;2022-10-31T09:45:25;6.47;;;2.20;;
7647;SDS011;3866;48.020;11.720;2022-10-31T09:48:08;6.60;;;2.37;;
7647;SDS011;3866;48.020;11.720;2022-10-31T09:50:48;6.30;;;2.33;;
7647;SDS011;3866;48.020;11.720;2022-10-31T09:53:22;8.93;;;2.60;;
7647;SDS011;3866;48.020;11.720;2022-10-31T09:55:55;6.40;;;2.73;;
7647;SDS011;3866;48.020;11.720;2022-10-31T09:58:24;6.33;;;2.50;;
7647;SDS011;3866;48.020;11.720;2022-10-31T10:00:56;6.67;;;2.33;;
7647;SDS011;3866;48.020;11.720;2022-10-31T10:03:28;7.07;;;2.87;;
7647;SDS011;3866;48.020;11.720;2022-10-31T10:06:02;9.60;;;2.77;;
7647;SDS011;3866;48.020;11.720;2022-10-31T10:08:39;10.83;;;3.07;;
7647;SDS011;3866;48.020;11.720;2022-10-31T10:11:13;6.73;;;2.57;;
7647;SDS011;3866;48.020;11.720;2022-10-31T10:13:57;5.10;;;2.47;;
7647;SDS011;3866;48.020;11.720;2022-10-31T10:16:47;7.93;;;3.00;;
7647;SDS011;3866;48.020;11.720;2022-10-31T10:19:25;7.60;;;3.03;;
7647;SDS011;3866;48.020;11.720;2022-10-31T10:22:02;9.03;;;2.50;;
7647;SDS011;3866;48.020;11.720;2022-10-31T10:24:42;7.47;;;2.60;;
7647;SDS011;3866;48.020;11.720;2022-10-31T10:27:23;10.30;;;3.00;;
7647;SDS011;3866;48.020;11.720;2022-10-31T10:29:57;11.90;;;2.90;;
7647;SDS011;3866;48.020;11.720;2022-10-31T10:32:29;7.90;;;2.70;;
7647;SDS011;3866;48.020;11.720;2022-10-31T10:35:02;4.83;;;2.43;;
7647;SDS011;3866;48.020;11.720;2022-10-31T10:37:40;5.33;;;2.50;;
7647;SDS011;3866;48.020;11.720;2022-10-31T10:40:15;5.80;;;2.77;;
7647;SDS011;3866;48.020;11.720;2022-10-31T10:42:44;7.97;;;2.73;;
7647;SDS011;3866;48.020;11.720;2022-10-31T10:45:34;6.27;;;2.73;;
7647;SDS011;3866;48.020;11.720;2022-10-31T10:48:24;9.57;;;2.43;;
7647;SDS011;3866;48.020;11.720;2022-10-31T10:50:58;4.93;;;2.07;;
7647;SDS011;3866;48.020;11.720;2022-10-31T10:53:30;4.20;;;2.10;;
7647;SDS011;3866;48.020;11.720;2022-10-31T10:56:15;6.77;;;3.17;;
7647;SDS011;3866;48.020;11.720;2022-10-31T10:58:44;7.77;;;2.90;;
7647;SDS011;3866;48.020;11.720;2022-10-31T11:01:12;8.33;;;2.90;;
7647;SDS011;3866;48.020;11.720;2022-10-31T11:03:43;4.90;;;2.27;;
7647;SDS011;3866;48.020;11.720;2022-10-31T11:06:16;7.37;;;2.80;;
7647;SDS011;3866;48.020;11.720;2022-10-31T11:08:47;4.20;;;2.63;;
7647;SDS011;3866;48.020;11.720;2022-10-31T11:11:18;6.90;;;2.00;;
7647;SDS011;3866;48.020;11.720;2022-10-31T11:13:52;5.83;;;3.07;;
7647;SDS011;3866;48.020;11.720;2022-10-31T11:16:27;8.97;;;2.70;;
7647;SDS011;3866;48.020;11.720;2022-10-31T11:19:06;7.47;;;2.63;;
7647;SDS011;3866;48.020;11.720;2022-10-31T11:21:35;8.73;;;2.80;;
7647;SDS011;3866;48.020;11.720;2022-10-31T11:24:03;6.03;;;2.27;;
7647;SDS011;3866;48.020;11.720;2022-10-31T11:26:40;8.43;;;2.53;;
7647;SDS011;3866;48.020;11.720;2022-10-31T11:29:14;8.57;;;2.67;;
7647;SDS011;3866;48.020;11.720;2022-10-31T11:31:45;10.37;;;2.93;;
7647;SDS011;3866;48.020;11.720;2022-10-31T11:34:17;8.23;;;2.77;;
7647;SDS011;3866;48.020;11.720;2022-10-31T11:37:08;7.73;;;2.93;;
7647;SDS011;3866;48.020;11.720;2022-10-31T11:39:40;8.10;;;3.17;;
7647;SDS011;3866;48.020;11.720;2022-10-31T11:42:10;6.03;;;2.20;;
7647;SDS011;3866;48.020;11.720;2022-10-31T11:44:41;7.47;;;2.80;;
7647;SDS011;3866;48.020;11.720;2022-10-31T11:47:09;5.70;;;2.27;;
7647;SDS011;3866;48.020;11.720;2022-10-31T11:49:43;7.50;;;3.13;;
7647;SDS011;3866;48.020;11.720;2022-10-31T11:52:15;7.80;;;2.60;;
7647;SDS011;3866;48.020;11.720;2022-10-31T11:54:46;9.60;;;2.50;;
7647;SDS011;3866;48.020;11.720;2022-10-31T11:57:26;8.00;;;2.80;;
7647;SDS011;3866;48.020;11.720;2022-10-31T11:59:55;8.07;;;2.47;;
7647;SDS011;3866;48.020;11.720;2022-10-31T12:02:24;7.17;;;3.00;;
7647;SDS011;3866;48.020;11.720;2022-10-31T12:04:59;7.87;;;2.97;;
7647;SDS011;3866;48.020;11.720;2022-10-31T12:07:33;7.73;;;2.77;;
7647;SDS011;3866;48.020;11.720;2022-10-31T12:10:01;5.60;;;2.70;;
7647;SDS011;3866;48.020;11.720;2022-10-31T12:15:29;7.93;;;2.70;;
7647;SDS011;3866;48.020;11.720;2022-10-31T12:18:17;8.07;;;3.50;;
7647;SDS011;3866;48.020;11.720;2022-10-31T12:21:07;5.07;;;2.40;;
7647;SDS011;3866;48.020;11.720;2022-10-31T12:23:45;7.60;;;2.53;;
7647;SDS011;3866;48.020;11.720;2022-10-31T12:26:20;10.13;;;2.70;;
7647;SDS011;3866;48.020;11.720;2022-10-31T12:29:04;10.47;;;2.67;;
7647;SDS011;3866;48.020;11.720;2022-10-31T12:31:51;9.00;;;3.10;;
7647;SDS011;3866;48.020;11.720;2022-10-31T12:37:27;7.93;;;3.03;;
7647;SDS011;3866;48.020;11.720;2022-10-31T12:40:10;10.33;;;3.23;;
7647;SDS011;3866;48.020;11.720;2022-10-31T12:42:55;11.83;;;3.00;;
7647;SDS011;3866;48.020;11.720;2022-10-31T12:45:39;9.30;;;4.03;;
7647;SDS011;3866;48.020;11.720;2022-10-31T12:48:20;6.77;;;3.53;;
7647;SDS011;3866;48.020;11.720;2022-10-31T12:51:01;12.43;;;3.13;;
7647;SDS011;3866;48.020;11.720;2022-10-31T12:53:40;11.60;;;3.30;;
7647;SDS011;3866;48.020;11.720;2022-10-31T12:56:22;12.50;;;3.87;;
7647;SDS011;3866;48.020;11.720;2022-10-31T12:59:03;7.40;;;2.93;;
7647;SDS011;3866;48.020;11.720;2022-10-31T13:01:39;12.03;;;3.60;;
7647;SDS011;3866;48.020;11.720;2022-10-31T13:04:16;10.03;;;3.70;;
7647;SDS011;3866;48.020;11.720;2022-10-31T13:06:51;8.53;;;3.53;;
7647;SDS011;3866;48.020;11.720;2022-10-31T13:09:26;8.00;;;3.33;;
7647;SDS011;3866;48.020;11.720;2022-10-31T13:12:07;7.97;;;3.10;;
7647;SDS011;3866;48.020;11.720;2022-10-31T13:14:40;11.23;;;3.97;;
7647;SDS011;3866;48.020;11.720;2022-10-31T13:17:13;9.50;;;3.00;;
7647;SDS011;3866;48.020;11.720;2022-10-31T13:19:51;8.00;;;3.47;;
7647;SDS011;3866;48.020;11.720;2022-10-31T13:22:22;8.27;;;3.30;;
7647;SDS011;3866;48.020;11.720;2022-10-31T13:25:03;12.47;;;3.83;;
7647;SDS011;3866;48.020;11.720;2022-10-31T13:27:41;8.43;;;3.23;;
7647;SDS011;3866;48.020;11.720;2022-10-31T13:30:15;8.67;;;3.23;;
7647;SDS011;3866;48.020;11.720;2022-10-31T13:32:47;8.53;;;3.13;;
7647;SDS011;3866;48.020;11.720;2022-10-31T13:35:23;11.90;;;4.00;;
7647;SDS011;3866;48.020;11.720;2022-10-31T13:38:05;7.17;;;3.20;;
7647;SDS011;3866;48.020;11.720;2022-10-31T13:40:45;6.03;;;3.40;;
7647;SDS011;3866;48.020;11.720;2022-10-31T13:43:22;10.10;;;4.17;;
7647;SDS011;3866;48.020;11.720;2022-10-31T13:45:55;8.50;;;3.63;;
7647;SDS011;3866;48.020;11.720;2022-10-31T13:48:38;6.67;;;3.23;;
7647;SDS011;3866;48.020;11.720;2022-10-31T13:51:08;10.13;;;4.07;;
7647;SDS011;3866;48.020;11.720;2022-10-31T13:53:37;7.93;;;4.27;;
7647;SDS011;3866;48.020;11.720;2022-10-31T13:56:13;9.30;;;3.80;;
7647;SDS011;3866;48.020;11.720;2022-10-31T13:58:53;8.93;;;3.90;;
7647;SDS011;3866;48.020;11.720;2022-10-31T14:01:28;11.57;;;3.67;;
7647;SDS011;3866;48.020;11.720;2022-10-31T14:03:56;11.43;;;4.13;;
7647;SDS011;3866;48.020;11.720;2022-10-31T14:06:44;8.87;;;4.03;;
7647;SDS011;3866;48.020;11.720;2022-10-31T14:09:19;8.40;;;3.93;;
7647;SDS011;3866;48.020;11.720;2022-10-31T14:11:51;11.07;;;4.37;;
7647;SDS011;3866;48.020;11.720;2022-10-31T14:14:19;10.67;;;4.20;;
7647;SDS011;3866;48.020;11.720;2022-10-31T14:16:52;10.93;;;3.93;;
7647;SDS011;3866;48.020;11.720;2022-10-31T14:19:21;9.47;;;4.20;;
7647;SDS011;3866;48.020;11.720;2022-10-31T14:21:49;8.90;;;3.23;;
7647;SDS011;3866;48.020;11.720;2022-10-31T14:24:30;11.57;;;4.43;;
7647;SDS011;3866;48.020;11.720;2022-10-31T14:27:02;8.53;;;4.10;;
7647;SDS011;3866;48.020;11.720;2022-10-31T14:29:51;10.00;;;4.30;;
7647;SDS011;3866;48.020;11.720;2022-10-31T14:32:19;8.83;;;4.37;;
7647;SDS011;3866;48.020;11.720;2022-10-31T14:34:52;6.93;;;3.70;;
7647;SDS011;3866;48.020;11.720;2022-10-31T14:37:27;10.10;;;4.70;;
7647;SDS011;3866;48.020;11.720;2022-10-31T14:40:22;8.97;;;4.20;;
7647;SDS011;3866;48.020;11.720;2022-10-31T14:45:46;13.80;;;5.37;;
7647;SDS011;3866;48.020;11.720;2022-10-31T14:48:24;11.57;;;4.70;;
7647;SDS011;3866;48.020;11.720;2022-10-31T14:51:07;13.23;;;4.77;;
7647;SDS011;3866;48.020;11.720;2022-10-31T14:53:40;14.53;;;4.27;;
7647;SDS011;3866;48.020;11.720;2022-10-31T14:56:11;9.67;;;4.50;;
7647;SDS011;3866;48.020;11.720;2022-10-31T14:58:46;12.13;;;4.70;;
7647;SDS011;3866;48.020;11.720;2022-10-31T15:01:19;12.50;;;4.53;;
7647;SDS011;3866;48.020;11.720;2022-10-31T15:03:49;12.30;;;4.83;;
7647;SDS011;3866;48.020;11.720;2022-10-31T15:06:19;12.70;;;5.27;;
7647;SDS011;3866;48.020;11.720;2022-10-31T15:08:48;9.73;;;4.77;;
7647;SDS011;3866;48.020;11.720;2022-10-31T15:11:17;11.07;;;4.87;;
7647;SDS011;3866;48.020;11.720;2022-10-31T15:13:47;10.20;;;4.40;;
7647;SDS011;3866;48.020;11.720;2022-10-31T15:16:16;9.20;;;4.90;;
7647;SDS011;3866;48.020;11.720;2022-10-31T15:18:51;14.93;;;5.40;;
7647;SDS011;3866;48.020;11.720;2022-10-31T15:21:20;12.50;;;5.53;;
7647;SDS011;3866;48.020;11.720;2022-10-31T15:23:49;11.70;;;5.37;;
7647;SDS011;3866;48.020;11.720;2022-10-31T15:26:19;8.43;;;4.57;;
7647;SDS011;3866;48.020;11.720;2022-10-31T15:28:58;13.33;;;4.97;;
7647;SDS011;3866;48.020;11.720;2022-10-31T15:31:27;11.10;;;5.07;;
7647;SDS011;3866;48.020;11.720;2022-10-31T15:33:56;9.60;;;4.50;;
7647;SDS011;3866;48.020;11.720;2022-10-31T15:36:27;10.77;;;5.53;;
7647;SDS011;3866;48.020;11.720;2022-10-31T15:38:55;8.73;;;4.37;;
7647;SDS011;3866;48.020;11.720;2022-10-31T15:41:24;12.37;;;5.10;;
7647;SDS011;3866;48.020;11.720;2022-10-31T15:43:59;13.97;;;5.73;;